Time;durP1;ratioP1;P1;durP2;ratioP2;P2;SDS_P1;SDS_P2;PMS_P1;PMS_P2;Temp;Humidity;BMP_temperature;BMP_pressure;BME280_temperature;BME280_humidity;BME280_pressure;Samples;Min_cycle;Max_cycle;Signal;HPM_P1;HPM_P2
2021/04/22 00:02:11;;;;;;;2.50;2.30;;;;;;;12.15;46.99;100446.88;5055040;28;20476;-70
2021/04/22 00:04:36;;;;;;;4.10;3.33;;;;;;;12.31;48.14;100444.81;5055512;28;20360;-70
2021/04/22 00:07:02;;;;;;;2.70;2.50;;;;;;;12.29;49.07;100447.16;5054886;28;20036;-70
2021/04/22 00:09:28;;;;;;;3.47;2.50;;;;;;;12.23;48.73;100437.47;5054510;28;20472;-70
2021/04/22 00:11:54;;;;;;;2.63;2.42;;;;;;;12.22;48.33;100435.88;5054249;28;20036;-70
2021/04/22 00:14:19;;;;;;;2.38;2.17;;;;;;;12.26;46.58;100431.16;5054801;28;20029;-70
2021/04/22 00:16:45;;;;;;;3.67;2.47;;;;;;;12.34;44.99;100432.91;5054444;28;20373;-70
2021/04/22 00:19:11;;;;;;;3.15;2.47;;;;;;;12.40;46.79;100437.00;5055221;28;20060;-70
2021/04/22 00:21:39;;;;;;;3.13;2.90;;;;;;;12.44;47.85;100432.31;5054203;28;20033;-70
2021/04/22 00:24:05;;;;;;;2.60;2.40;;;;;;;12.45;47.97;100428.34;5054613;28;20032;-70
2021/04/22 00:26:31;;;;;;;3.85;2.40;;;;;;;12.53;48.59;100429.28;5032483;28;20153;-70
2021/04/22 00:28:56;;;;;;;3.25;2.95;;;;;;;12.49;48.41;100429.22;5054222;28;20068;-70
2021/04/22 00:31:22;;;;;;;4.20;3.17;;;;;;;12.43;49.16;100433.50;5054144;28;20029;-70
2021/04/22 00:33:48;;;;;;;3.47;2.75;;;;;;;12.42;49.75;100428.28;5054468;28;20021;-72
2021/04/22 00:36:14;;;;;;;3.35;3.03;;;;;;;12.40;50.22;100423.06;5054673;28;20379;-70
2021/04/22 00:38:43;;;;;;;3.38;3.00;;;;;;;12.41;51.82;100426.66;5054319;28;20034;-70
2021/04/22 00:41:09;;;;;;;3.28;2.95;;;;;;;12.35;51.66;100423.34;5054297;28;20494;-70
2021/04/22 00:43:35;;;;;;;3.25;2.95;;;;;;;12.38;52.21;100417.06;5054217;28;20050;-70
2021/04/22 00:46:01;;;;;;;2.85;2.55;;;;;;;12.31;52.65;100416.94;5053912;28;20464;-70
2021/04/22 00:48:27;;;;;;;3.03;2.78;;;;;;;12.30;52.53;100415.28;5054182;28;20028;-70
2021/04/22 00:50:54;;;;;;;2.97;2.78;;;;;;;12.28;53.43;100412.88;5054342;28;20459;-70
2021/04/22 00:53:20;;;;;;;6.70;3.13;;;;;;;12.33;54.57;100411.78;5053762;28;20028;-70
2021/04/22 00:55:47;;;;;;;4.00;3.05;;;;;;;12.28;54.06;100414.84;5037355;28;20033;-70
2021/04/22 00:58:13;;;;;;;3.70;3.30;;;;;;;12.33;53.90;100422.94;5053728;28;20024;-70
2021/04/22 01:01:00;;;;;;;4.63;3.55;;;;;;;12.31;53.41;100416.94;5054253;28;20115;-70
2021/04/22 01:03:26;;;;;;;4.80;3.60;;;;;;;12.35;51.49;100406.63;5053766;28;20436;-70
2021/04/22 01:05:56;;;;;;;4.18;3.40;;;;;;;12.40;53.15;100416.69;5037124;28;20368;-70
2021/04/22 01:08:22;;;;;;;4.15;3.33;;;;;;;12.43;54.41;100408.38;5053485;28;20037;-70
2021/04/22 01:10:48;;;;;;;4.18;3.67;;;;;;;12.38;54.22;100413.47;5037060;28;20032;-70
2021/04/22 01:13:14;;;;;;;3.95;3.55;;;;;;;12.41;53.82;100412.69;5053599;28;20032;-71
2021/04/22 01:15:39;;;;;;;4.68;3.75;;;;;;;12.83;52.76;100421.84;5053355;28;20079;-71
2021/04/22 01:18:08;;;;;;;4.28;3.88;;;;;;;12.68;53.20;100424.78;5053532;28;20025;-71
2021/04/22 01:20:46;;;;;;;4.80;3.70;;;;;;;12.52;54.35;100434.06;5037889;28;20037;-71
2021/04/22 01:23:12;;;;;;;4.03;3.53;;;;;;;12.48;54.50;100427.63;5053210;28;20032;-71
2021/04/22 01:25:42;;;;;;;3.78;3.40;;;;;;;12.42;56.19;100434.69;5052674;28;20059;-71
2021/04/22 01:28:11;;;;;;;4.22;3.83;;;;;;;12.43;57.13;100443.84;5036690;28;20468;-71
2021/04/22 01:30:44;;;;;;;4.32;3.92;;;;;;;12.32;57.08;100440.84;5053557;28;20029;-71
2021/04/22 01:33:14;;;;;;;4.63;3.92;;;;;;;12.24;59.20;100445.47;5052635;28;20107;-71
2021/04/22 01:35:43;;;;;;;4.43;4.03;;;;;;;12.17;60.18;100434.16;5054825;28;20025;-71
2021/04/22 01:38:10;;;;;;;4.00;3.67;;;;;;;12.17;60.62;100438.94;5052944;28;20057;-71
2021/04/22 01:40:37;;;;;;;5.55;4.38;;;;;;;12.22;61.47;100428.31;5054732;28;20037;-71
2021/04/22 01:43:04;;;;;;;5.53;4.78;;;;;;;12.26;62.83;100436.75;5052852;28;20079;-71
2021/04/22 01:45:30;;;;;;;6.55;5.20;;;;;;;12.18;63.30;100429.41;5036495;28;20036;-71
2021/04/22 01:47:56;;;;;;;7.82;6.53;;;;;;;12.19;63.99;100428.22;5037106;28;20029;-72
2021/04/22 01:50:26;;;;;;;6.82;5.32;;;;;;;12.03;65.59;100420.72;5054014;28;20066;-72
2021/04/22 01:52:53;;;;;;;6.03;5.47;;;;;;;12.02;66.36;100429.47;5053681;28;20032;-72
2021/04/22 01:55:23;;;;;;;6.00;5.38;;;;;;;12.11;66.37;100424.50;5053261;28;20036;-72
2021/04/22 01:57:50;;;;;;;6.07;4.60;;;;;;;12.19;68.38;100417.06;5052602;28;20025;-72
2021/04/22 02:00:20;;;;;;;5.20;4.78;;;;;;;12.11;69.07;100418.91;5053808;28;20051;-72
2021/04/22 02:02:46;;;;;;;5.43;4.90;;;;;;;12.05;69.18;100421.19;5052707;28;20025;-72
2021/04/22 02:05:13;;;;;;;6.32;5.72;;;;;;;12.15;68.69;100417.00;5053051;28;20171;-72
2021/04/22 02:07:39;;;;;;;6.45;5.55;;;;;;;12.03;70.21;100423.53;5052432;28;20025;-72
2021/04/22 02:10:07;;;;;;;6.78;6.25;;;;;;;11.98;70.87;100426.59;5053226;28;20029;-72
2021/04/22 02:12:33;;;;;;;6.38;5.60;;;;;;;11.92;71.92;100428.06;5052362;28;20501;-72
2021/04/22 02:14:58;;;;;;;5.53;5.03;;;;;;;11.80;72.51;100428.19;5052758;28;20057;-72
2021/04/22 02:17:24;;;;;;;5.30;4.80;;;;;;;11.87;72.57;100425.56;5052380;28;20475;-72
2021/04/22 02:19:49;;;;;;;5.95;5.45;;;;;;;11.92;72.87;100433.66;5052657;28;20021;-72
2021/04/22 02:22:15;;;;;;;6.05;5.50;;;;;;;11.66;73.82;100397.19;5052419;28;20111;-72
2021/04/22 02:24:41;;;;;;;7.50;6.35;;;;;;;11.78;74.46;100424.97;5052135;28;20033;-72
2021/04/22 02:27:07;;;;;;;9.43;8.50;;;;;;;11.88;74.23;100427.22;5052625;28;20039;-72
2021/04/22 02:29:32;;;;;;;7.75;6.95;;;;;;;12.12;74.87;100426.09;5052254;28;20027;-72
2021/04/22 02:31:58;;;;;;;5.90;5.30;;;;;;;11.95;75.15;100430.13;5052324;28;20111;-72
2021/04/22 02:34:24;;;;;;;5.20;4.70;;;;;;;11.82;76.51;100430.63;5052236;28;20064;-72
2021/04/22 02:36:49;;;;;;;6.47;5.72;;;;;;;11.73;76.06;100420.47;5052228;28;20033;-72
2021/04/22 02:39:15;;;;;;;6.75;6.15;;;;;;;11.82;77.19;100417.50;5052467;28;20083;-72
2021/04/22 02:41:40;;;;;;;6.57;5.97;;;;;;;11.73;77.31;100414.09;5052459;28;20032;-72
2021/04/22 02:44:06;;;;;;;8.00;7.22;;;;;;;11.68;77.66;100419.97;5052783;28;20535;-72
2021/04/22 02:46:32;;;;;;;9.23;8.43;;;;;;;11.68;78.33;100408.81;5056163;28;20029;-72
2021/04/22 02:48:57;;;;;;;12.05;11.00;;;;;;;11.69;78.72;100402.06;5056415;28;20060;-72
2021/04/22 02:51:23;;;;;;;11.65;10.60;;;;;;;11.73;78.98;100402.94;5056060;28;20383;-72
2021/04/22 02:53:48;;;;;;;13.43;12.18;;;;;;;11.74;79.49;100405.38;5056067;28;20029;-72
2021/04/22 02:56:14;;;;;;;12.65;11.50;;;;;;;11.73;79.05;100402.94;5056288;28;20079;-72
2021/04/22 02:58:39;;;;;;;12.95;11.60;;;;;;;11.73;79.26;100394.59;5056504;28;20021;-72
2021/04/22 03:01:05;;;;;;;23.85;21.42;;;;;;;11.72;79.46;100395.78;5056161;28;20383;-72
2021/04/22 03:03:30;;;;;;;25.55;22.98;;;;;;;11.85;79.84;100405.63;5055955;28;20036;-72
2021/04/22 03:05:58;;;;;;;13.15;11.80;;;;;;;11.90;79.05;100391.41;5056480;28;20179;-72
2021/04/22 03:08:24;;;;;;;11.32;10.23;;;;;;;11.85;79.40;100394.47;5055991;28;20036;-72
2021/04/22 03:10:50;;;;;;;19.13;16.08;;;;;;;11.82;79.86;100395.19;5055737;28;20488;-72
2021/04/22 03:13:16;;;;;;;16.67;14.88;;;;;;;11.78;80.29;100395.09;5055995;28;20029;-72
2021/04/22 03:15:41;;;;;;;14.55;11.45;;;;;;;11.87;80.51;100396.88;5055838;28;20044;-72
2021/04/22 03:18:07;;;;;;;11.27;9.98;;;;;;;11.77;80.13;100398.22;5056640;28;20025;-72
2021/04/22 03:20:33;;;;;;;13.57;12.18;;;;;;;11.75;80.27;100395.03;5056948;28;20092;-72
2021/04/22 03:22:59;;;;;;;20.08;17.92;;;;;;;11.81;80.42;100399.13;5058295;28;20119;-72
2021/04/22 03:25:26;;;;;;;23.23;20.45;;;;;;;11.74;81.19;100388.63;5057183;28;20049;-72
2021/04/22 03:27:52;;;;;;;25.27;22.65;;;;;;;11.80;81.26;100400.31;5057884;28;20052;-72
2021/04/22 03:30:21;;;;;;;22.08;18.80;;;;;;;11.76;81.13;100396.63;5055728;28;20029;-72
2021/04/22 03:32:47;;;;;;;11.70;10.02;;;;;;;11.76;81.23;100391.84;5055955;28;20112;-72
2021/04/22 03:35:13;;;;;;;7.28;6.43;;;;;;;11.91;81.61;100393.00;5055627;28;20450;-72
2021/04/22 03:37:40;;;;;;;5.97;5.38;;;;;;;11.91;81.19;100403.34;5056602;28;20025;-71
2021/04/22 03:40:08;;;;;;;13.82;11.35;;;;;;;11.81;81.32;100393.56;5056236;28;20068;-72
2021/04/22 03:42:34;;;;;;;12.95;11.65;;;;;;;11.91;81.29;100392.19;5055159;28;20056;-72
2021/04/22 03:44:59;;;;;;;14.27;12.05;;;;;;;11.78;81.77;100395.09;5055146;28;20029;-71
2021/04/22 03:47:25;;;;;;;16.58;14.85;;;;;;;11.76;81.84;100402.19;5055603;28;20029;-72
2021/04/22 03:49:50;;;;;;;15.15;13.50;;;;;;;11.72;82.60;100402.16;5056151;28;20502;-71
2021/04/22 03:52:16;;;;;;;12.70;10.73;;;;;;;11.69;82.53;100400.06;5055566;28;20356;-72
2021/04/22 03:54:41;;;;;;;7.72;7.03;;;;;;;11.70;82.39;100403.66;5054386;28;20064;-72
2021/04/22 03:57:08;;;;;;;6.25;5.72;;;;;;;11.61;82.15;100397.50;5055412;28;20029;-71
2021/04/22 03:59:33;;;;;;;5.18;4.70;;;;;;;11.67;81.78;100394.06;5055173;28;20182;-71
2021/04/22 04:01:59;;;;;;;6.05;5.10;;;;;;;11.71;81.93;100388.56;5054816;28;20083;-71
2021/04/22 04:04:24;;;;;;;6.53;5.93;;;;;;;11.61;81.76;100391.91;5056023;28;20041;-71
2021/04/22 04:06:50;;;;;;;7.32;6.45;;;;;;;11.64;82.96;100388.41;5054661;28;20379;-71
2021/04/22 04:09:16;;;;;;;6.38;5.75;;;;;;;11.57;83.04;100393.84;5055002;28;20029;-71
2021/04/22 04:11:41;;;;;;;5.68;5.07;;;;;;;11.57;83.46;100383.50;5054512;28;20025;-71
2021/04/22 04:14:07;;;;;;;7.35;5.45;;;;;;;11.51;83.23;100385.75;5055162;28;20036;-71
2021/04/22 04:16:33;;;;;;;5.32;4.85;;;;;;;11.61;83.22;100386.34;5055186;28;20534;-71
2021/04/22 04:18:58;;;;;;;6.03;5.47;;;;;;;11.53;83.38;100388.97;5054699;28;20369;-71
2021/04/22 04:21:24;;;;;;;6.13;5.53;;;;;;;11.43;83.23;100383.16;5054817;28;20043;-71
2021/04/22 04:23:50;;;;;;;6.75;5.65;;;;;;;11.54;82.75;100392.56;5054549;28;20068;-71
2021/04/22 04:26:19;;;;;;;6.13;5.43;;;;;;;11.47;83.33;100390.44;5054325;28;20087;-71
2021/04/22 04:28:44;;;;;;;6.38;5.88;;;;;;;11.41;83.09;100391.09;5054623;28;20490;-71
2021/04/22 04:31:10;;;;;;;5.55;5.10;;;;;;;11.46;83.00;100383.25;5053890;28;20029;-71
2021/04/22 04:33:36;;;;;;;8.85;7.32;;;;;;;11.34;83.19;100386.16;5054489;28;20091;-71
2021/04/22 04:36:02;;;;;;;5.97;5.55;;;;;;;11.36;83.65;100389.41;5054035;28;20040;-71
2021/04/22 04:38:28;;;;;;;6.00;5.40;;;;;;;11.26;84.09;100389.94;5037691;28;20032;-71
2021/04/22 04:40:53;;;;;;;7.38;6.50;;;;;;;11.32;84.00;100388.50;5054568;28;20372;-71
2021/04/22 04:43:19;;;;;;;6.30;5.80;;;;;;;11.13;84.34;100380.06;5054012;28;20082;-71
2021/04/22 04:45:44;;;;;;;6.65;6.05;;;;;;;11.23;83.87;100382.31;5054537;28;20029;-71
2021/04/22 04:48:10;;;;;;;7.28;6.13;;;;;;;11.18;83.65;100388.16;5054223;28;20460;-71
2021/04/22 04:50:36;;;;;;;6.28;5.68;;;;;;;11.18;84.33;100385.38;5054368;28;20106;-71
2021/04/22 04:53:01;;;;;;;7.13;6.43;;;;;;;11.05;84.67;100379.13;5054156;28;20036;-71
2021/04/22 04:55:27;;;;;;;6.65;5.97;;;;;;;11.20;85.51;100388.63;5053781;28;20047;-72
2021/04/22 04:57:53;;;;;;;7.00;6.40;;;;;;;11.26;84.91;100389.94;5053544;28;20033;-71
2021/04/22 05:00:19;;;;;;;6.50;5.90;;;;;;;11.22;84.82;100383.47;5053669;28;20036;-71
2021/04/22 05:02:46;;;;;;;6.85;6.35;;;;;;;11.17;84.79;100378.19;5053607;28;20075;-71
2021/04/22 05:05:13;;;;;;;6.57;6.07;;;;;;;11.18;84.90;100383.38;5054906;28;20052;-71
2021/04/22 05:07:38;;;;;;;6.20;5.70;;;;;;;11.16;84.77;100388.53;5053268;28;20071;-71
2021/04/22 05:10:07;;;;;;;5.32;4.93;;;;;;;11.22;85.11;100389.06;5053382;28;20033;-71
2021/04/22 05:12:32;;;;;;;5.50;4.82;;;;;;;11.22;84.46;100387.06;5036985;28;20086;-71
2021/04/22 05:14:58;;;;;;;5.28;4.80;;;;;;;11.32;84.64;100388.50;5053383;28;20120;-71
2021/04/22 05:17:24;;;;;;;4.18;3.80;;;;;;;11.38;84.19;100389.03;5053358;28;20024;-71
2021/04/22 05:19:50;;;;;;;5.20;4.25;;;;;;;11.44;83.55;100398.72;5054110;28;20139;-71
2021/04/22 05:22:16;;;;;;;4.47;3.85;;;;;;;11.40;84.15;100393.06;5053258;28;20372;-71
2021/04/22 05:24:41;;;;;;;4.80;4.40;;;;;;;11.39;84.56;100394.22;5052953;28;20051;-70
2021/04/22 05:27:07;;;;;;;5.03;4.03;;;;;;;11.49;84.46;100390.06;5053682;28;20032;-71
2021/04/22 05:29:33;;;;;;;6.70;4.95;;;;;;;11.53;83.99;100394.56;5036416;28;20522;-74
2021/04/22 05:31:59;;;;;;;6.63;4.93;;;;;;;11.58;84.51;100406.59;5053068;28;20036;-71
2021/04/22 05:34:24;;;;;;;4.57;4.18;;;;;;;11.73;84.51;100400.97;5053282;28;20033;-71
2021/04/22 05:36:50;;;;;;;3.15;2.90;;;;;;;11.50;82.59;100405.59;5053264;28;20029;-71
2021/04/22 05:39:18;;;;;;;3.50;3.20;;;;;;;11.60;83.01;100399.47;5052944;28;20059;-71
2021/04/22 05:41:47;;;;;;;4.03;3.63;;;;;;;11.54;82.71;100392.56;5052853;28;20025;-71
2021/04/22 05:44:12;;;;;;;4.45;4.05;;;;;;;11.53;82.91;100400.13;5052776;28;20029;-71
2021/04/22 05:46:40;;;;;;;3.92;2.78;;;;;;;11.46;83.00;100397.19;5053372;28;20032;-71
2021/04/22 05:49:06;;;;;;;3.22;3.03;;;;;;;11.48;83.01;100394.84;5052756;28;20047;-71
2021/04/22 05:51:31;;;;;;;3.25;2.95;;;;;;;11.53;82.67;100397.34;5052679;28;20154;-71
2021/04/22 05:53:57;;;;;;;4.15;3.85;;;;;;;11.57;82.27;100404.97;5052696;28;20033;-71
2021/04/22 05:56:23;;;;;;;3.72;3.42;;;;;;;11.64;83.37;100399.56;5052662;28;20037;-71
2021/04/22 05:58:48;;;;;;;3.33;3.00;;;;;;;11.66;82.84;100400.78;5052606;28;20151;-71
2021/04/22 06:01:14;;;;;;;4.72;3.55;;;;;;;11.66;82.62;100403.59;5054120;28;20055;-71
2021/04/22 06:03:39;;;;;;;3.63;3.35;;;;;;;11.75;83.37;100398.59;5052594;28;20033;-71
2021/04/22 06:06:05;;;;;;;2.55;2.35;;;;;;;11.72;82.06;100401.34;5052762;28;20059;-71
2021/04/22 06:08:31;;;;;;;2.42;2.22;;;;;;;11.68;81.72;100400.44;5052542;28;20025;-71
2021/04/22 06:10:56;;;;;;;3.13;2.42;;;;;;;11.66;82.06;100400.00;5052437;28;20112;-71
2021/04/22 06:13:22;;;;;;;3.08;2.47;;;;;;;11.67;82.41;100405.22;5052419;28;20033;-71
2021/04/22 06:15:47;;;;;;;2.78;2.60;;;;;;;11.80;82.15;100405.88;5052673;28;20033;-71
2021/04/22 06:18:13;;;;;;;4.65;3.20;;;;;;;11.84;82.85;100401.22;5052200;28;20029;-71
2021/04/22 06:20:39;;;;;;;3.13;2.92;;;;;;;11.87;83.08;100396.88;5052382;28;20021;-71
2021/04/22 06:23:04;;;;;;;3.60;3.30;;;;;;;11.89;82.81;100402.91;5052339;28;20029;-71
2021/04/22 06:25:30;;;;;;;4.30;3.65;;;;;;;12.03;83.10;100401.22;5051986;28;20053;-71
2021/04/22 06:28:01;;;;;;;4.18;3.83;;;;;;;11.97;81.73;100399.91;5052334;28;20508;-71
2021/04/22 06:30:28;;;;;;;3.70;2.85;;;;;;;11.98;81.93;100395.94;5053712;28;20025;-71
2021/04/22 06:32:54;;;;;;;2.40;2.20;;;;;;;11.84;81.73;100397.63;5052242;28;20395;-71
2021/04/22 06:35:24;;;;;;;2.25;2.15;;;;;;;11.79;81.87;100395.91;5051937;28;20110;-71
2021/04/22 06:37:52;;;;;;;2.78;1.90;;;;;;;11.95;80.86;100398.66;5052193;28;20025;-71
2021/04/22 06:40:20;;;;;;;6.90;6.13;;;;;;;12.00;81.46;100396.38;5052430;28;20036;-71
2021/04/22 06:42:46;;;;;;;7.20;5.95;;;;;;;11.91;81.57;100398.56;5052083;28;20120;-71
2021/04/22 06:45:13;;;;;;;3.60;3.30;;;;;;;11.94;82.11;100403.44;5052635;28;20115;-71
2021/04/22 06:47:39;;;;;;;3.67;3.38;;;;;;;12.03;82.47;100401.22;5051745;28;20033;-71
2021/04/22 06:50:12;;;;;;;5.88;5.28;;;;;;;11.98;82.40;100398.72;5052261;28;20119;-71
2021/04/22 06:52:38;;;;;;;4.00;3.70;;;;;;;11.97;83.15;100402.69;5053403;28;20036;-72
2021/04/22 06:55:12;;;;;;;4.93;2.95;;;;;;;11.97;82.53;100401.88;5052473;28;20035;-71
2021/04/22 06:57:37;;;;;;;2.03;1.92;;;;;;;11.94;81.56;100400.66;5052027;28;20025;-71
2021/04/22 07:00:24;;;;;;;3.92;3.53;;;;;;;12.02;82.28;100404.38;5052016;28;20063;-71
2021/04/22 07:02:50;;;;;;;3.33;2.58;;;;;;;11.96;82.71;100403.88;5052568;28;20051;-71
2021/04/22 07:05:17;;;;;;;2.75;2.55;;;;;;;12.02;82.05;100407.97;5052242;28;20037;-71
2021/04/22 07:07:43;;;;;;;2.95;2.70;;;;;;;12.08;82.23;100408.47;5051958;28;20035;-71
2021/04/22 07:10:09;;;;;;;2.78;2.58;;;;;;;12.18;81.85;100404.28;5051848;28;20108;-71
2021/04/22 07:12:35;;;;;;;3.03;2.75;;;;;;;12.29;81.89;100408.09;5053376;28;20032;-71
2021/04/22 07:15:01;;;;;;;3.60;2.88;;;;;;;12.30;81.92;100409.72;5051894;28;20435;-71
2021/04/22 07:17:27;;;;;;;6.85;3.10;;;;;;;12.33;81.82;100411.78;5051844;28;20115;-71
2021/04/22 07:19:59;;;;;;;2.95;2.75;;;;;;;12.37;82.15;100421.03;5051815;28;20033;-70
2021/04/22 07:22:25;;;;;;;3.25;2.35;;;;;;;12.40;81.83;100414.69;5053638;28;20366;-70
2021/04/22 07:24:52;;;;;;;2.58;2.13;;;;;;;12.40;80.79;100414.69;5051282;28;20121;-70
2021/04/22 07:27:19;;;;;;;2.95;1.83;;;;;;;12.34;80.67;100416.16;5051783;28;20473;-70
2021/04/22 07:29:45;;;;;;;2.45;2.25;;;;;;;12.32;80.98;100418.53;5052256;28;20143;-70
2021/04/22 07:32:15;;;;;;;2.30;2.20;;;;;;;12.30;81.45;100416.13;5055933;28;20450;-70
2021/04/22 07:34:41;;;;;;;2.70;2.50;;;;;;;12.23;81.66;100426.31;5055287;28;20021;-70
2021/04/22 07:37:07;;;;;;;2.50;2.30;;;;;;;12.38;81.14;100417.06;5055756;28;20506;-70
2021/04/22 07:39:33;;;;;;;2.78;2.58;;;;;;;12.36;81.14;100413.00;5055436;28;20495;-71
2021/04/22 07:41:59;;;;;;;2.25;2.15;;;;;;;12.48;81.41;100413.66;5055166;28;20029;-71
2021/04/22 07:44:25;;;;;;;3.10;2.80;;;;;;;12.55;80.99;100418.56;5055428;28;20116;-71
2021/04/22 07:46:50;;;;;;;19.63;16.33;;;;;;;12.75;80.39;100413.75;5055868;28;20067;-71
2021/04/22 07:49:16;;;;;;;3.95;3.53;;;;;;;12.65;80.43;100415.16;5055267;28;20421;-71
2021/04/22 07:51:42;;;;;;;2.80;2.60;;;;;;;12.79;81.11;100425.78;5054761;28;20040;-70
2021/04/22 07:54:07;;;;;;;4.90;4.38;;;;;;;12.82;80.37;100414.66;5054265;28;20082;-71
2021/04/22 07:56:33;;;;;;;3.30;2.97;;;;;;;13.02;80.45;100409.81;5055137;28;20044;-70
2021/04/22 07:58:59;;;;;;;3.15;2.80;;;;;;;13.07;80.08;100408.69;5055159;28;20529;-70
2021/04/22 08:01:25;;;;;;;3.03;2.83;;;;;;;13.18;80.06;100420.84;5055087;28;20459;-71
2021/04/22 08:03:53;;;;;;;2.75;2.60;;;;;;;13.43;79.60;100404.50;5054151;28;20033;-70
2021/04/22 08:06:19;;;;;;;3.03;2.50;;;;;;;13.40;78.32;100416.44;5054709;28;20036;-71
2021/04/22 08:08:45;;;;;;;6.57;2.67;;;;;;;13.49;78.14;100414.19;5054978;28;20021;-71
2021/04/22 08:11:10;;;;;;;2.78;2.58;;;;;;;13.18;78.89;100404.09;5054564;28;20506;-70
2021/04/22 08:13:37;;;;;;;2.38;2.17;;;;;;;13.34;79.20;100426.31;5054568;28;20067;-71
2021/04/22 08:16:03;;;;;;;5.72;4.85;;;;;;;13.32;79.05;100423.09;5055104;28;20448;-70
2021/04/22 08:18:29;;;;;;;2.45;2.25;;;;;;;13.03;79.89;100421.78;5054469;28;20175;-70
2021/04/22 08:20:57;;;;;;;2.63;2.42;;;;;;;12.82;80.85;100419.44;5054418;28;20115;-70
2021/04/22 08:23:25;;;;;;;2.35;2.15;;;;;;;12.93;80.74;100425.22;5054391;28;20021;-70
2021/04/22 08:25:54;;;;;;;2.40;2.20;;;;;;;12.67;81.54;100432.34;5055338;28;20057;-70
2021/04/22 08:28:22;;;;;;;2.17;2.08;;;;;;;12.55;82.11;100419.38;5055636;28;20036;-70
2021/04/22 08:31:00;;;;;;;2.60;2.40;;;;;;;12.41;82.63;100416.31;5054789;28;20029;-70
2021/04/22 08:33:27;;;;;;;1.95;1.85;;;;;;;12.38;83.17;100421.81;5054169;28;20110;-70
2021/04/22 08:35:53;;;;;;;3.15;2.95;;;;;;;12.27;83.89;100421.63;5054160;28;20035;-70
2021/04/22 08:38:20;;;;;;;2.47;2.33;;;;;;;12.25;84.13;100421.16;5053925;28;20033;-70
2021/04/22 08:40:50;;;;;;;3.00;2.80;;;;;;;12.25;84.44;100423.94;5054311;28;20376;-70
2021/04/22 08:43:16;;;;;;;2.40;2.20;;;;;;;12.30;84.41;100432.03;5054220;28;20483;-70
2021/04/22 08:45:43;;;;;;;2.65;2.15;;;;;;;12.21;84.02;100429.47;5054265;28;20135;-70
2021/04/22 08:48:11;;;;;;;2.72;2.50;;;;;;;12.28;83.78;100424.03;5054155;28;20468;-70
2021/04/22 08:50:39;;;;;;;3.00;2.80;;;;;;;12.33;84.09;100432.09;5054254;28;20035;-70
2021/04/22 08:53:14;;;;;;;3.85;2.45;;;;;;;12.28;84.96;100426.03;5054150;28;20028;-70
2021/04/22 08:55:39;;;;;;;2.42;2.33;;;;;;;12.22;84.94;100430.28;5053751;28;20033;-70
2021/04/22 08:58:06;;;;;;;2.67;2.47;;;;;;;12.26;84.60;100434.75;5053656;28;20025;-70
2021/04/22 09:00:41;;;;;;;6.28;2.53;;;;;;;12.38;84.32;100428.22;5054805;28;20038;-70
2021/04/22 09:03:07;;;;;;;5.70;5.20;;;;;;;12.47;83.67;100408.47;5053886;28;20036;-70
2021/04/22 09:05:32;;;;;;;3.33;3.03;;;;;;;12.92;82.34;100434.78;5054087;28;20103;-71
2021/04/22 09:07:58;;;;;;;1.95;1.85;;;;;;;13.02;80.42;100422.97;5053546;28;20029;-70
2021/04/22 09:10:25;;;;;;;4.00;2.70;;;;;;;13.18;80.36;100420.03;5053683;28;20075;-71
2021/04/22 09:13:15;;;;;;;2.15;1.80;;;;;;;13.17;79.18;100424.84;5053671;28;20025;-70
2021/04/22 09:15:42;;;;;;;7.68;6.97;;;;;;;13.47;79.39;100422.13;5053938;28;20025;-70
2021/04/22 09:18:14;;;;;;;2.22;2.03;;;;;;;13.31;78.43;100433.44;5053873;28;20028;-70
2021/04/22 09:20:42;;;;;;;4.88;4.47;;;;;;;13.47;79.01;100433.28;5053239;28;20029;-70
2021/04/22 09:23:14;;;;;;;2.50;2.17;;;;;;;13.40;79.52;100432.41;5053289;28;20032;-70
2021/04/22 09:25:40;;;;;;;2.13;2.03;;;;;;;13.31;79.39;100424.25;5053051;28;20136;-70
2021/04/22 09:28:07;;;;;;;2.05;1.95;;;;;;;13.29;80.04;100421.84;5053450;28;20059;-71
2021/04/22 09:30:39;;;;;;;2.42;2.17;;;;;;;13.25;80.40;100425.78;5053818;28;20032;-70
2021/04/22 09:33:05;;;;;;;2.33;2.20;;;;;;;13.44;80.12;100408.91;5053435;28;20183;-70
2021/04/22 09:35:30;;;;;;;2.25;2.05;;;;;;;13.55;80.10;100412.66;5052991;28;20112;-70
2021/04/22 09:37:56;;;;;;;3.97;2.65;;;;;;;13.59;79.59;100412.72;5053236;28;20021;-70
2021/04/22 09:40:28;;;;;;;2.85;2.63;;;;;;;13.77;79.25;100412.97;5052841;28;20483;-70
2021/04/22 09:42:56;;;;;;;2.40;2.20;;;;;;;13.95;79.41;100414.00;5053374;28;20051;-70
2021/04/22 09:45:24;;;;;;;2.38;2.17;;;;;;;14.09;78.55;100407.78;5053470;28;20071;-70
2021/04/22 09:47:50;;;;;;;3.22;2.63;;;;;;;14.08;78.28;100403.38;5053387;28;20033;-70
2021/04/22 09:50:19;;;;;;;2.55;2.35;;;;;;;14.13;77.01;100409.44;5052734;28;20025;-71
2021/04/22 09:52:49;;;;;;;3.05;2.75;;;;;;;14.19;77.39;100407.09;5052572;28;20415;-70
2021/04/22 09:55:18;;;;;;;3.65;2.20;;;;;;;13.92;77.82;100409.16;5054264;28;20082;-70
2021/04/22 09:57:46;;;;;;;2.28;2.17;;;;;;;13.99;78.67;100416.84;5053504;28;20080;-70
2021/04/22 10:00:28;;;;;;;2.45;2.25;;;;;;;13.83;79.52;100409.44;5020083;28;20144;-70
2021/04/22 10:02:59;;;;;;;2.25;2.15;;;;;;;13.84;79.37;100413.03;5052328;28;20112;-70
2021/04/22 10:05:30;;;;;;;2.38;2.28;;;;;;;13.82;79.94;100412.63;5053427;28;20044;-69
2021/04/22 10:08:17;;;;;;;2.60;2.33;;;;;;;13.88;80.13;100408.31;5052531;28;20071;-71
2021/04/22 10:10:56;;;;;;;3.58;2.95;;;;;;;13.96;79.21;100410.03;5054768;28;20329;-70
2021/04/22 10:13:21;;;;;;;2.67;2.25;;;;;;;14.01;78.80;100415.28;5052452;28;20036;-70
2021/04/22 10:15:52;;;;;;;3.42;3.13;;;;;;;14.16;79.15;100424.63;5052429;28;20033;-70
2021/04/22 10:18:18;;;;;;;3.38;3.08;;;;;;;14.07;78.97;100418.56;5036248;28;20026;-70
2021/04/22 10:20:44;;;;;;;4.03;2.70;;;;;;;14.32;78.23;100408.44;5052309;28;20029;-70
2021/04/22 10:23:11;;;;;;;2.88;2.60;;;;;;;14.59;77.13;100414.75;5035976;28;20029;-70
2021/04/22 10:25:43;;;;;;;2.53;2.38;;;;;;;14.74;77.19;100414.91;5052420;28;20419;-69
2021/04/22 10:28:14;;;;;;;3.35;3.15;;;;;;;14.78;76.55;100410.16;5052859;28;20435;-70
2021/04/22 10:30:45;;;;;;;3.90;3.60;;;;;;;14.73;76.87;100402.91;5052177;28;20032;-70
2021/04/22 10:33:11;;;;;;;3.55;2.80;;;;;;;14.67;76.83;100399.66;5053295;28;20494;-70
2021/04/22 10:35:40;;;;;;;2.63;2.53;;;;;;;14.48;78.00;100405.44;5053750;28;20033;-69
2021/04/22 10:38:06;;;;;;;3.65;3.35;;;;;;;14.74;77.27;100386.91;5035647;28;20025;-70
2021/04/22 10:40:37;;;;;;;3.47;3.28;;;;;;;14.84;76.97;100386.19;5052537;28;20041;-70
2021/04/22 10:43:07;;;;;;;3.97;3.17;;;;;;;14.67;77.08;100382.84;5052168;28;20029;-70
2021/04/22 10:45:36;;;;;;;5.03;3.83;;;;;;;14.56;77.14;100393.13;5052107;28;20033;-69
2021/04/22 10:48:01;;;;;;;4.50;4.10;;;;;;;14.52;78.01;100383.88;5053952;28;20029;-69
2021/04/22 10:50:48;;;;;;;4.85;4.38;;;;;;;14.51;78.10;100376.69;5051941;28;20442;-69
2021/04/22 10:53:19;;;;;;;5.65;4.30;;;;;;;14.58;77.86;100371.16;5052018;28;20029;-69
2021/04/22 10:55:47;;;;;;;2.63;2.42;;;;;;;14.59;75.21;100371.94;5052972;28;20097;-69
2021/04/22 10:58:32;;;;;;;3.20;3.00;;;;;;;14.65;77.27;100381.63;5036194;28;20037;-69
2021/04/22 11:01:04;;;;;;;3.00;2.67;;;;;;;14.42;77.26;100376.16;5052133;28;20041;-70
2021/04/22 11:03:40;;;;;;;4.78;3.33;;;;;;;14.18;78.75;100376.72;5052973;28;20379;-69
2021/04/22 11:06:09;;;;;;;4.57;4.10;;;;;;;14.32;79.40;100371.25;5054383;28;20025;-71
2021/04/22 11:08:55;;;;;;;3.17;2.65;;;;;;;14.15;78.67;100365.06;5056042;28;20057;-69
2021/04/22 11:11:24;;;;;;;4.90;3.60;;;;;;;14.25;78.88;100365.59;5055746;28;20086;-69
2021/04/22 11:14:12;;;;;;;3.10;2.80;;;;;;;14.16;77.49;100369.47;5056302;28;20116;-69
2021/04/22 11:16:40;;;;;;;3.47;3.05;;;;;;;14.10;78.20;100364.63;5055487;28;20029;-69
2021/04/22 11:19:22;;;;;;;4.80;3.50;;;;;;;14.19;79.34;100364.31;5055876;28;20376;-69
2021/04/22 11:22:01;;;;;;;4.68;4.05;;;;;;;14.22;79.74;100367.16;5055519;28;20095;-69
2021/04/22 11:24:35;;;;;;;6.22;5.00;;;;;;;14.15;80.21;100342.69;5056052;28;20494;-69
2021/04/22 11:27:06;;;;;;;8.95;6.03;;;;;;;14.23;78.35;100363.19;5055022;28;20049;-69